Gamle Salten — LCQT — position and weather

sailwx.info

Track history (hours):
 
Tides and Currents Weather Stations Pressure Air Temp Water Temp Dewpoint Dewpoint Depression Visibility Wind Speed Wind Dir Waves Ship Positions

Gamle Salten

Last reported at 2014-Jul-31 15:29 UTC. Time now 2014-Jul-31 15:38 UTC.
Position N 67°17' E 014°23'.

Length 48 m; draft 5 m.

Type: Passenger vessel. MMSI: 258178000.

Date/timePositionNaut miles runAvg speedWind from/ knotsBaromVisibWave heightAir tempDewpointWater temp
2014-Jul-31 15:29N 67°17' E 014°23'0 0.0
2014-Jul-31 14:29N 67°17' E 014°23'0 0.0
2014-Jul-31 13:31N 67°17' E 014°23'0 0.0
2014-Jul-31 12:30N 67°17' E 014°23'0 0.0
2014-Jul-31 11:33N 67°17' E 014°23'0 0.0
2014-Jul-31 10:32N 67°17' E 014°23'0 0.0
2014-Jul-31 09:32N 67°17' E 014°23'0 0.0
2014-Jul-31 08:31N 67°17' E 014°23'0 0.0
2014-Jul-31 07:30N 67°17' E 014°23'0 0.0
2014-Jul-31 06:31N 67°17' E 014°23'0 0.0
2014-Jul-31 05:31N 67°17' E 014°23'0 0.0
2014-Jul-31 04:33N 67°17' E 014°23'0 0.0
2014-Jul-31 03:29N 67°17' E 014°23'0 0.0
2014-Jul-31 02:31N 67°17' E 014°23'0 0.0
2014-Jul-31 01:31N 67°17' E 014°23'0 0.0
2014-Jul-31 00:33N 67°17' E 014°23'0 0.4
2014-Jul-30 23:33N 67°17' E 014°22'10 9.7
2014-Jul-30 22:33N 67°10' E 014°04'52 9.9
2014-Jul-30 17:15N 66°25' E 012°59'9010.3
2014-Jul-30 08:30N 65°01' E 011°41'1010.4
2014-Jul-30 07:33N 64°55' E 011°22'5 4.1
2014-Jul-30 06:28N 64°52' E 011°14'0 0.0
2014-Jul-30 05:33N 64°52' E 011°14'0 0.0
2014-Jul-30 04:33N 64°52' E 011°14'0 0.0
2014-Jul-30 03:32N 64°52' E 011°14'0 0.0
2014-Jul-30 02:31N 64°52' E 011°14'0 0.0
2014-Jul-30 01:31N 64°52' E 011°14'0 0.0
2014-Jul-30 00:34N 64°52' E 011°14'89 7.7
2014-Jul-29 13:04N 63°28' E 010°06'510.4
2014-Jul-29 12:33N 63°28' E 010°18'3 3.3
2014-Jul-29 11:32N 63°26' E 010°25'0 0.0
2014-Jul-29 10:31N 63°26' E 010°25'0 0.0
2014-Jul-29 09:31N 63°26' E 010°25'0 0.0
2014-Jul-29 08:33N 63°26' E 010°25'0 0.0
2014-Jul-29 07:33N 63°26' E 010°25'0 0.0
2014-Jul-29 06:32N 63°26' E 010°25'0 0.0
2014-Jul-29 05:31N 63°26' E 010°25'0 0.0
2014-Jul-29 04:31N 63°26' E 010°25'0 0.0
2014-Jul-29 03:33N 63°26' E 010°25'0 0.0
2014-Jul-29 02:33N 63°26' E 010°25'0 0.0
2014-Jul-29 01:32N 63°26' E 010°25'0 0.0
2014-Jul-29 00:32N 63°26' E 010°25'0 0.0
2014-Jul-28 23:31N 63°26' E 010°25'0 0.0
2014-Jul-28 22:33N 63°26' E 010°25'0 0.0
2014-Jul-28 21:33N 63°26' E 010°25'0 0.0
2014-Jul-28 20:32N 63°26' E 010°25'0 0.0
2014-Jul-28 19:32N 63°26' E 010°25'0 0.0
2014-Jul-28 18:31N 63°26' E 010°25'0 0.5
2014-Jul-28 17:33N 63°27' E 010°25'9 9.4
2014-Jul-28 16:33N 63°28' E 010°04'91 4.1
2014-Jul-27 18:33N 64°53' E 011°19'68 2.5
2014-Jul-26 15:32N 65°56' E 012°24'9 1.0
2014-Jul-26 06:32N 66°02' E 012°38'2010.1
2014-Jul-26 04:31N 66°21' E 012°57'1010.1
2014-Jul-26 03:30N 66°31' E 012°58'48 4.4
2014-Jul-25 16:33N 67°11' E 014°05'9 8.9
2014-Jul-25 15:34N 67°17' E 014°23'0 0.0
2014-Jul-25 14:33N 67°17' E 014°23'0 0.0
2014-Jul-25 13:34N 67°17' E 014°23'0 0.0
2014-Jul-25 12:32N 67°17' E 014°23'0 0.0
2014-Jul-25 11:31N 67°17' E 014°23'0 0.0
2014-Jul-25 10:31N 67°17' E 014°23'0 0.0
2014-Jul-25 09:31N 67°17' E 014°23'0 0.0
2014-Jul-25 08:33N 67°17' E 014°23'0 0.0
2014-Jul-25 07:33N 67°17' E 014°23'0 0.0
2014-Jul-25 06:32N 67°17' E 014°23'0 0.0
2014-Jul-25 05:33N 67°17' E 014°23'0 0.0
2014-Jul-25 04:32N 67°17' E 014°23'0 0.0
2014-Jul-25 03:31N 67°17' E 014°23'0 0.0
2014-Jul-25 02:33N 67°17' E 014°23'0 0.0
2014-Jul-25 01:32N 67°17' E 014°23'0 0.0
2014-Jul-25 00:23N 67°17' E 014°23'0 0.0
2014-Jul-24 23:31N 67°17' E 014°23'0 0.0
2014-Jul-24 22:31N 67°17' E 014°23'0 0.0
2014-Jul-24 21:33N 67°17' E 014°23'0 0.0
2014-Jul-24 20:32N 67°17' E 014°23'0 0.0
2014-Jul-24 19:29N 67°17' E 014°23'0 0.0
2014-Jul-24 18:31N 67°17' E 014°23'0 0.0
2014-Jul-24 09:03N 67°17' E 014°23'0 0.0
2014-Jul-24 08:33N 67°17' E 014°23'0 0.0
2014-Jul-24 07:33N 67°17' E 014°23'0 0.0
2014-Jul-24 06:33N 67°17' E 014°23'0 0.0
2014-Jul-24 05:33N 67°17' E 014°23'0 0.0
2014-Jul-24 04:32N 67°17' E 014°23'0 0.0
2014-Jul-24 03:32N 67°17' E 014°23'0 0.0
2014-Jul-24 02:31N 67°17' E 014°23'0 0.0
2014-Jul-24 01:31N 67°17' E 014°23'0 0.0
2014-Jul-24 00:33N 67°17' E 014°23'0 0.0
2014-Jul-23 23:33N 67°17' E 014°23'0 0.0
2014-Jul-23 22:32N 67°17' E 014°23'0 0.0
2014-Jul-23 21:31N 67°17' E 014°23'0 0.0
2014-Jul-23 20:31N 67°17' E 014°23'0 0.0
2014-Jul-23 19:33N 67°17' E 014°23'0 0.0
2014-Jul-23 18:32N 67°17' E 014°23'0 0.0
2014-Jul-23 17:32N 67°17' E 014°23'0 0.0
2014-Jul-23 16:31N 67°17' E 014°23'0 0.0
2014-Jul-23 15:33N 67°17' E 014°23'0 0.0
2014-Jul-23 14:28N 67°17' E 014°23'0 0.0
2014-Jul-23 13:33N 67°17' E 014°23'0 0.0
2014-Jul-23 12:33N 67°17' E 014°23'0 0.0
2014-Jul-23 11:32N 67°17' E 014°23'0 0.0
2014-Jul-23 10:31N 67°17' E 014°23'0 0.0
2014-Jul-23 09:31N 67°17' E 014°23'0 0.0
2014-Jul-23 08:29N 67°17' E 014°23'0 0.0
2014-Jul-23 07:31N 67°17' E 014°23'0 0.0
2014-Jul-23 06:33N 67°17' E 014°23'0 0.0
2014-Jul-23 05:31N 67°17' E 014°23'0 0.0
2014-Jul-23 04:33N 67°17' E 014°23'0 0.0
2014-Jul-23 03:32N 67°17' E 014°23'0 0.0
2014-Jul-23 02:31N 67°17' E 014°23'0 0.0
2014-Jul-23 01:31N 67°17' E 014°23'0 0.0
2014-Jul-23 00:33N 67°17' E 014°23'0 0.0
2014-Jul-22 23:33N 67°17' E 014°23'0 0.0
2014-Jul-22 22:32N 67°17' E 014°23'0 0.0
2014-Jul-22 21:31N 67°17' E 014°23'0 0.0
2014-Jul-22 20:31N 67°17' E 014°23'0 0.0
2014-Jul-22 19:33N 67°17' E 014°23'0 0.0
2014-Jul-22 18:30N 67°17' E 014°23'0 0.0
2014-Jul-22 17:29N 67°17' E 014°23'0 0.0
2014-Jul-22 16:31N 67°17' E 014°23'0 0.0
2014-Jul-22 15:32N 67°17' E 014°23'0 0.0
2014-Jul-22 14:31N 67°17' E 014°23'0 0.0
2014-Jul-22 13:30N 67°17' E 014°23'0 0.0
2014-Jul-22 12:33N 67°17' E 014°23'0 0.0
2014-Jul-22 11:29N 67°17' E 014°23'0 0.0
2014-Jul-22 10:32N 67°17' E 014°23'0 0.0
2014-Jul-22 09:28N 67°17' E 014°23'0 0.0
2014-Jul-22 08:33N 67°17' E 014°23'0 0.0
2014-Jul-22 07:32N 67°17' E 014°23'0 0.0
2014-Jul-22 06:34N 67°17' E 014°23'0 0.0
2014-Jul-22 05:33N 67°17' E 014°23'0 0.0
2014-Jul-22 04:32N 67°17' E 014°23'0 0.0
2014-Jul-22 03:32N 67°17' E 014°23'0 0.0
2014-Jul-22 02:32N 67°17' E 014°23'0 0.0
2014-Jul-22 01:31N 67°17' E 014°23'0 0.0
2014-Jul-22 00:33N 67°17' E 014°23'0 0.0
2014-Jul-21 23:33N 67°17' E 014°23'0 0.0
2014-Jul-21 22:32N 67°17' E 014°23'0 0.0
2014-Jul-21 21:32N 67°17' E 014°23'0 0.0
2014-Jul-21 20:31N 67°17' E 014°23'0 0.0
2014-Jul-21 20:16N 67°17' E 014°23'0 0.0
2014-Jul-21 19:33N 67°17' E 014°23'0 0.0
2014-Jul-21 18:33N 67°17' E 014°23'0 0.0
2014-Jul-21 17:32N 67°17' E 014°23'0 0.0
2014-Jul-21 16:29N 67°17' E 014°23'0 0.0
2014-Jul-21 15:31N 67°17' E 014°23'  
Track history (hours):
 
Tides and Currents Weather Stations Pressure Air Temp Water Temp Dewpoint Dewpoint Depression Visibility Wind Speed Wind Dir Waves Ship Positions

Gamle Salten

Last reported at 2014-Jul-31 15:29 UTC. Time now 2014-Jul-31 15:38 UTC.
Position N 67°17' E 014°23'.

Length 48 m; draft 5 m.

Type: Passenger vessel. MMSI: 258178000.

Date/timePositionNaut miles runAvg speedWind from/ knotsBaromVisibWave heightAir tempDewpointWater temp
2014-Jul-31 15:29N 67°17' E 014°23'0 0.0
2014-Jul-31 14:29N 67°17' E 014°23'0 0.0
2014-Jul-31 13:31N 67°17' E 014°23'0 0.0
2014-Jul-31 12:30N 67°17' E 014°23'0 0.0
2014-Jul-31 11:33N 67°17' E 014°23'0 0.0
2014-Jul-31 10:32N 67°17' E 014°23'0 0.0
2014-Jul-31 09:32N 67°17' E 014°23'0 0.0
2014-Jul-31 08:31N 67°17' E 014°23'0 0.0
2014-Jul-31 07:30N 67°17' E 014°23'0 0.0
2014-Jul-31 06:31N 67°17' E 014°23'0 0.0
2014-Jul-31 05:31N 67°17' E 014°23'0 0.0
2014-Jul-31 04:33N 67°17' E 014°23'0 0.0
2014-Jul-31 03:29N 67°17' E 014°23'0 0.0
2014-Jul-31 02:31N 67°17' E 014°23'0 0.0
2014-Jul-31 01:31N 67°17' E 014°23'0 0.0
2014-Jul-31 00:33N 67°17' E 014°23'0 0.4
2014-Jul-30 23:33N 67°17' E 014°22'10 9.7
2014-Jul-30 22:33N 67°10' E 014°04'52 9.9
2014-Jul-30 17:15N 66°25' E 012°59'9010.3
2014-Jul-30 08:30N 65°01' E 011°41'1010.4
2014-Jul-30 07:33N 64°55' E 011°22'5 4.1
2014-Jul-30 06:28N 64°52' E 011°14'0 0.0
2014-Jul-30 05:33N 64°52' E 011°14'0 0.0
2014-Jul-30 04:33N 64°52' E 011°14'0 0.0
2014-Jul-30 03:32N 64°52' E 011°14'0 0.0
2014-Jul-30 02:31N 64°52' E 011°14'0 0.0
2014-Jul-30 01:31N 64°52' E 011°14'0 0.0
2014-Jul-30 00:34N 64°52' E 011°14'89 7.7
2014-Jul-29 13:04N 63°28' E 010°06'510.4
2014-Jul-29 12:33N 63°28' E 010°18'3 3.3
2014-Jul-29 11:32N 63°26' E 010°25'0 0.0
2014-Jul-29 10:31N 63°26' E 010°25'0 0.0
2014-Jul-29 09:31N 63°26' E 010°25'0 0.0
2014-Jul-29 08:33N 63°26' E 010°25'0 0.0
2014-Jul-29 07:33N 63°26' E 010°25'0 0.0
2014-Jul-29 06:32N 63°26' E 010°25'0 0.0
2014-Jul-29 05:31N 63°26' E 010°25'0 0.0
2014-Jul-29 04:31N 63°26' E 010°25'0 0.0
2014-Jul-29 03:33N 63°26' E 010°25'0 0.0
2014-Jul-29 02:33N 63°26' E 010°25'0 0.0
2014-Jul-29 01:32N 63°26' E 010°25'0 0.0
2014-Jul-29 00:32N 63°26' E 010°25'0 0.0
2014-Jul-28 23:31N 63°26' E 010°25'0 0.0
2014-Jul-28 22:33N 63°26' E 010°25'0 0.0
2014-Jul-28 21:33N 63°26' E 010°25'0 0.0
2014-Jul-28 20:32N 63°26' E 010°25'0 0.0
2014-Jul-28 19:32N 63°26' E 010°25'0 0.0
2014-Jul-28 18:31N 63°26' E 010°25'0 0.5
2014-Jul-28 17:33N 63°27' E 010°25'9 9.4
2014-Jul-28 16:33N 63°28' E 010°04'91 4.1
2014-Jul-27 18:33N 64°53' E 011°19'68 2.5
2014-Jul-26 15:32N 65°56' E 012°24'9 1.0
2014-Jul-26 06:32N 66°02' E 012°38'2010.1
2014-Jul-26 04:31N 66°21' E 012°57'1010.1
2014-Jul-26 03:30N 66°31' E 012°58'48 4.4
2014-Jul-25 16:33N 67°11' E 014°05'9 8.9
2014-Jul-25 15:34N 67°17' E 014°23'0 0.0
2014-Jul-25 14:33N 67°17' E 014°23'0 0.0
2014-Jul-25 13:34N 67°17' E 014°23'0 0.0
2014-Jul-25 12:32N 67°17' E 014°23'0 0.0
2014-Jul-25 11:31N 67°17' E 014°23'0 0.0
2014-Jul-25 10:31N 67°17' E 014°23'0 0.0
2014-Jul-25 09:31N 67°17' E 014°23'0 0.0
2014-Jul-25 08:33N 67°17' E 014°23'0 0.0
2014-Jul-25 07:33N 67°17' E 014°23'0 0.0
2014-Jul-25 06:32N 67°17' E 014°23'0 0.0
2014-Jul-25 05:33N 67°17' E 014°23'0 0.0
2014-Jul-25 04:32N 67°17' E 014°23'0 0.0
2014-Jul-25 03:31N 67°17' E 014°23'0 0.0
2014-Jul-25 02:33N 67°17' E 014°23'0 0.0
2014-Jul-25 01:32N 67°17' E 014°23'0 0.0
2014-Jul-25 00:23N 67°17' E 014°23'0 0.0
2014-Jul-24 23:31N 67°17' E 014°23'0 0.0
2014-Jul-24 22:31N 67°17' E 014°23'0 0.0
2014-Jul-24 21:33N 67°17' E 014°23'0 0.0
2014-Jul-24 20:32N 67°17' E 014°23'0 0.0
2014-Jul-24 19:29N 67°17' E 014°23'0 0.0
2014-Jul-24 18:31N 67°17' E 014°23'0 0.0
2014-Jul-24 09:03N 67°17' E 014°23'0 0.0
2014-Jul-24 08:33N 67°17' E 014°23'0 0.0
2014-Jul-24 07:33N 67°17' E 014°23'0 0.0
2014-Jul-24 06:33N 67°17' E 014°23'0 0.0
2014-Jul-24 05:33N 67°17' E 014°23'0 0.0
2014-Jul-24 04:32N 67°17' E 014°23'0 0.0
2014-Jul-24 03:32N 67°17' E 014°23'0 0.0
2014-Jul-24 02:31N 67°17' E 014°23'0 0.0
2014-Jul-24 01:31N 67°17' E 014°23'0 0.0
2014-Jul-24 00:33N 67°17' E 014°23'0 0.0
2014-Jul-23 23:33N 67°17' E 014°23'0 0.0
2014-Jul-23 22:32N 67°17' E 014°23'0 0.0
2014-Jul-23 21:31N 67°17' E 014°23'0 0.0
2014-Jul-23 20:31N 67°17' E 014°23'0 0.0
2014-Jul-23 19:33N 67°17' E 014°23'0 0.0
2014-Jul-23 18:32N 67°17' E 014°23'0 0.0
2014-Jul-23 17:32N 67°17' E 014°23'0 0.0
2014-Jul-23 16:31N 67°17' E 014°23'0 0.0
2014-Jul-23 15:33N 67°17' E 014°23'0 0.0
2014-Jul-23 14:28N 67°17' E 014°23'0 0.0
2014-Jul-23 13:33N 67°17' E 014°23'0 0.0
2014-Jul-23 12:33N 67°17' E 014°23'0 0.0
2014-Jul-23 11:32N 67°17' E 014°23'0 0.0
2014-Jul-23 10:31N 67°17' E 014°23'0 0.0
2014-Jul-23 09:31N 67°17' E 014°23'0 0.0
2014-Jul-23 08:29N 67°17' E 014°23'0 0.0
2014-Jul-23 07:31N 67°17' E 014°23'0 0.0
2014-Jul-23 06:33N 67°17' E 014°23'0 0.0
2014-Jul-23 05:31N 67°17' E 014°23'0 0.0
2014-Jul-23 04:33N 67°17' E 014°23'0 0.0
2014-Jul-23 03:32N 67°17' E 014°23'0 0.0
2014-Jul-23 02:31N 67°17' E 014°23'0 0.0
2014-Jul-23 01:31N 67°17' E 014°23'0 0.0
2014-Jul-23 00:33N 67°17' E 014°23'0 0.0
2014-Jul-22 23:33N 67°17' E 014°23'0 0.0
2014-Jul-22 22:32N 67°17' E 014°23'0 0.0
2014-Jul-22 21:31N 67°17' E 014°23'0 0.0
2014-Jul-22 20:31N 67°17' E 014°23'0 0.0
2014-Jul-22 19:33N 67°17' E 014°23'0 0.0
2014-Jul-22 18:30N 67°17' E 014°23'0 0.0
2014-Jul-22 17:29N 67°17' E 014°23'0 0.0
2014-Jul-22 16:31N 67°17' E 014°23'0 0.0
2014-Jul-22 15:32N 67°17' E 014°23'0 0.0
2014-Jul-22 14:31N 67°17' E 014°23'0 0.0
2014-Jul-22 13:30N 67°17' E 014°23'0 0.0
2014-Jul-22 12:33N 67°17' E 014°23'0 0.0
2014-Jul-22 11:29N 67°17' E 014°23'0 0.0
2014-Jul-22 10:32N 67°17' E 014°23'0 0.0
2014-Jul-22 09:28N 67°17' E 014°23'0 0.0
2014-Jul-22 08:33N 67°17' E 014°23'0 0.0
2014-Jul-22 07:32N 67°17' E 014°23'0 0.0
2014-Jul-22 06:34N 67°17' E 014°23'0 0.0
2014-Jul-22 05:33N 67°17' E 014°23'0 0.0
2014-Jul-22 04:32N 67°17' E 014°23'0 0.0
2014-Jul-22 03:32N 67°17' E 014°23'0 0.0
2014-Jul-22 02:32N 67°17' E 014°23'0 0.0
2014-Jul-22 01:31N 67°17' E 014°23'0 0.0
2014-Jul-22 00:33N 67°17' E 014°23'0 0.0
2014-Jul-21 23:33N 67°17' E 014°23'0 0.0
2014-Jul-21 22:32N 67°17' E 014°23'0 0.0
2014-Jul-21 21:32N 67°17' E 014°23'0 0.0
2014-Jul-21 20:31N 67°17' E 014°23'0 0.0
2014-Jul-21 20:16N 67°17' E 014°23'0 0.0
2014-Jul-21 19:33N 67°17' E 014°23'0 0.0
2014-Jul-21 18:33N 67°17' E 014°23'0 0.0
2014-Jul-21 17:32N 67°17' E 014°23'0 0.0
2014-Jul-21 16:29N 67°17' E 014°23'0 0.0
2014-Jul-21 15:31N 67°17' E 014°23'  

Dump ship's entire track history